sensor_id;sensor_type;location;lat;lon;timestamp;pressure;altitude;pressure_sealevel;temperature;humidity
74474;BME280;62922;-6.168;106.796;2023-02-15T00:01:07;100860.72;;;28.72;67.05
74474;BME280;62922;-6.168;106.796;2023-02-15T00:03:34;100865.50;;;28.71;67.54
74474;BME280;62922;-6.168;106.796;2023-02-15T00:06:00;100859.41;;;28.69;67.55
74474;BME280;62922;-6.168;106.796;2023-02-15T00:08:26;100862.22;;;28.69;67.15
74474;BME280;62922;-6.168;106.796;2023-02-15T00:10:51;100869.47;;;28.70;67.29
74474;BME280;62922;-6.168;106.796;2023-02-15T00:13:18;100869.47;;;28.70;67.22
74474;BME280;62922;-6.168;106.796;2023-02-15T00:15:44;100882.34;;;28.71;67.27
74474;BME280;62922;-6.168;106.796;2023-02-15T00:18:09;100884.34;;;28.71;67.75
74474;BME280;62922;-6.168;106.796;2023-02-15T00:20:35;100884.34;;;28.71;67.24
74474;BME280;62922;-6.168;106.796;2023-02-15T00:23:04;100887.97;;;28.71;67.63
74474;BME280;62922;-6.168;106.796;2023-02-15T00:25:32;100888.81;;;28.72;67.67
74474;BME280;62922;-6.168;106.796;2023-02-15T00:27:59;100889.66;;;28.72;67.56
74474;BME280;62922;-6.168;106.796;2023-02-15T00:30:25;100900.03;;;28.72;67.57
74474;BME280;62922;-6.168;106.796;2023-02-15T00:32:51;100903.69;;;28.72;67.52
74474;BME280;62922;-6.168;106.796;2023-02-15T00:35:17;100914.59;;;28.74;67.77
74474;BME280;62922;-6.168;106.796;2023-02-15T00:37:44;100914.59;;;28.74;67.63
74474;BME280;62922;-6.168;106.796;2023-02-15T00:40:10;100917.41;;;28.74;67.39
74474;BME280;62922;-6.168;106.796;2023-02-15T00:42:36;100913.47;;;28.75;67.28
74474;BME280;62922;-6.168;106.796;2023-02-15T00:45:02;100917.91;;;28.76;67.22
74474;BME280;62922;-6.168;106.796;2023-02-15T00:47:28;100927.19;;;28.77;67.52
74474;BME280;62922;-6.168;106.796;2023-02-15T00:49:54;100937.25;;;28.77;67.44
74474;BME280;62922;-6.168;106.796;2023-02-15T00:52:20;100930.50;;;28.79;67.01
74474;BME280;62922;-6.168;106.796;2023-02-15T00:54:46;100928.50;;;28.79;67.35
74474;BME280;62922;-6.168;106.796;2023-02-15T00:57:11;100938.94;;;28.79;67.25
74474;BME280;62922;-6.168;106.796;2023-02-15T00:59:37;100941.75;;;28.79;67.23
74474;BME280;62922;-6.168;106.796;2023-02-15T01:02:03;100935.81;;;28.80;66.78
74474;BME280;62922;-6.168;106.796;2023-02-15T01:04:31;100945.88;;;28.81;66.91
74474;BME280;62922;-6.168;106.796;2023-02-15T01:06:57;100933.53;;;28.82;67.03
74474;BME280;62922;-6.168;106.796;2023-02-15T01:09:23;100924.25;;;28.82;67.07
74474;BME280;62922;-6.168;106.796;2023-02-15T01:11:49;100940.78;;;28.83;66.96
74474;BME280;62922;-6.168;106.796;2023-02-15T01:14:15;100936.84;;;28.84;66.91
74474;BME280;62922;-6.168;106.796;2023-02-15T01:16:47;100931.22;;;28.84;66.96
74474;BME280;62922;-6.168;106.796;2023-02-15T01:19:13;100930.91;;;28.86;67.09
74474;BME280;62922;-6.168;106.796;2023-02-15T01:21:38;100939.00;;;28.87;67.00
74474;BME280;62922;-6.168;106.796;2023-02-15T01:24:10;100937.84;;;28.88;67.12
74474;BME280;62922;-6.168;106.796;2023-02-15T01:26:36;100931.09;;;28.89;67.47
74474;BME280;62922;-6.168;106.796;2023-02-15T01:29:02;100936.41;;;28.91;67.34
74474;BME280;62922;-6.168;106.796;2023-02-15T01:31:28;100927.13;;;28.90;67.60
74474;BME280;62922;-6.168;106.796;2023-02-15T01:33:54;100938.06;;;28.92;67.46
74474;BME280;62922;-6.168;106.796;2023-02-15T01:36:20;100939.22;;;28.91;67.26
74474;BME280;62922;-6.168;106.796;2023-02-15T01:38:46;100940.88;;;28.92;67.43
74474;BME280;62922;-6.168;106.796;2023-02-15T01:41:12;100933.28;;;28.92;67.10
74474;BME280;62922;-6.168;106.796;2023-02-15T01:43:47;100944.19;;;28.94;67.15
74474;BME280;62922;-6.168;106.796;2023-02-15T01:46:14;100947.84;;;28.94;67.19
74474;BME280;62922;-6.168;106.796;2023-02-15T01:48:43;100943.88;;;28.95;67.24
74474;BME280;62922;-6.168;106.796;2023-02-15T01:51:10;100952.00;;;28.97;67.25
74474;BME280;62922;-6.168;106.796;2023-02-15T01:53:38;100950.84;;;28.98;67.18
74474;BME280;62922;-6.168;106.796;2023-02-15T01:56:13;100946.91;;;28.99;67.32
74474;BME280;62922;-6.168;106.796;2023-02-15T01:58:40;100963.94;;;29.02;67.30
74474;BME280;62922;-6.168;106.796;2023-02-15T02:01:07;100956.03;;;29.04;67.05
74474;BME280;62922;-6.168;106.796;2023-02-15T02:06:01;100957.69;;;29.05;66.91
74474;BME280;62922;-6.168;106.796;2023-02-15T02:08:27;100974.22;;;29.07;67.03
74474;BME280;62922;-6.168;106.796;2023-02-15T02:10:53;100963.81;;;29.07;66.91
74474;BME280;62922;-6.168;106.796;2023-02-15T02:13:19;100973.91;;;29.08;67.02
74474;BME280;62922;-6.168;106.796;2023-02-15T02:15:48;100969.97;;;29.09;67.05
74474;BME280;62922;-6.168;106.796;2023-02-15T02:20:51;100973.31;;;29.11;66.96
74474;BME280;62922;-6.168;106.796;2023-02-15T02:41:05;100952.56;;;29.21;66.72
74474;BME280;62922;-6.168;106.796;2023-02-15T02:43:34;100948.59;;;29.22;66.13
74474;BME280;62922;-6.168;106.796;2023-02-15T02:46:03;100947.47;;;29.23;66.54
74474;BME280;62922;-6.168;106.796;2023-02-15T02:48:32;100949.97;;;29.24;66.20
74474;BME280;62922;-6.168;106.796;2023-02-15T02:50:59;100941.22;;;29.26;66.26
74474;BME280;62922;-6.168;106.796;2023-02-15T02:53:25;100940.38;;;29.25;66.06
74474;BME280;62922;-6.168;106.796;2023-02-15T02:55:53;100929.63;;;29.27;66.02
74474;BME280;62922;-6.168;106.796;2023-02-15T03:00:52;100935.97;;;29.33;66.01
74474;BME280;62922;-6.168;106.796;2023-02-15T03:05:45;100947.06;;;29.38;65.89
74474;BME280;62922;-6.168;106.796;2023-02-15T03:08:14;100947.59;;;29.40;65.67
74474;BME280;62922;-6.168;106.796;2023-02-15T03:10:47;100945.28;;;29.42;65.77
74474;BME280;62922;-6.168;106.796;2023-02-15T03:13:16;100954.03;;;29.40;66.21
74474;BME280;62922;-6.168;106.796;2023-02-15T03:15:42;100946.47;;;29.41;66.12
74474;BME280;62922;-6.168;106.796;2023-02-15T03:18:12;100948.09;;;29.42;66.33
74474;BME280;62922;-6.168;106.796;2023-02-15T03:20:38;100958.69;;;29.45;66.09
74474;BME280;62922;-6.168;106.796;2023-02-15T03:23:05;100956.72;;;29.45;66.09
74474;BME280;62922;-6.168;106.796;2023-02-15T03:25:32;100968.81;;;29.46;66.05
74474;BME280;62922;-6.168;106.796;2023-02-15T03:28:00;100977.25;;;29.46;66.22
74474;BME280;62922;-6.168;106.796;2023-02-15T03:30:28;100973.28;;;29.47;65.89
74474;BME280;62922;-6.168;106.796;2023-02-15T03:32:54;100974.44;;;29.46;66.00
74474;BME280;62922;-6.168;106.796;2023-02-15T03:35:25;100975.56;;;29.45;65.96
74474;BME280;62922;-6.168;106.796;2023-02-15T03:37:55;100969.66;;;29.46;66.03
74474;BME280;62922;-6.168;106.796;2023-02-15T03:42:55;100971.63;;;29.46;66.03
74474;BME280;62922;-6.168;106.796;2023-02-15T03:45:25;100963.19;;;29.46;66.07
74474;BME280;62922;-6.168;106.796;2023-02-15T03:47:54;100968.81;;;29.46;66.11
74474;BME280;62922;-6.168;106.796;2023-02-15T03:50:24;100966.50;;;29.48;66.13
74474;BME280;62922;-6.168;106.796;2023-02-15T03:52:55;100969.31;;;29.48;66.05
74474;BME280;62922;-6.168;106.796;2023-02-15T03:55:23;100969.84;;;29.50;65.74
74474;BME280;62922;-6.168;106.796;2023-02-15T03:57:51;100976.28;;;29.50;65.71
74474;BME280;62922;-6.168;106.796;2023-02-15T04:05:15;100982.09;;;29.54;65.49
74474;BME280;62922;-6.168;106.796;2023-02-15T04:07:41;100959.28;;;29.55;65.17
74474;BME280;62922;-6.168;106.796;2023-02-15T04:10:07;100958.97;;;29.57;64.73
74474;BME280;62922;-6.168;106.796;2023-02-15T04:12:35;100961.78;;;29.57;64.90
74474;BME280;62922;-6.168;106.796;2023-02-15T04:15:01;100960.63;;;29.58;64.73
74474;BME280;62922;-6.168;106.796;2023-02-15T04:17:29;100943.41;;;29.59;64.59
74474;BME280;62922;-6.168;106.796;2023-02-15T04:19:55;100947.06;;;29.60;64.37
74474;BME280;62922;-6.168;106.796;2023-02-15T04:22:24;100938.63;;;29.60;64.19
74474;BME280;62922;-6.168;106.796;2023-02-15T04:24:52;100929.06;;;29.61;64.12
74474;BME280;62922;-6.168;106.796;2023-02-15T04:27:21;100922.25;;;29.62;64.08
74474;BME280;62922;-6.168;106.796;2023-02-15T04:29:47;100923.94;;;29.63;64.02
74474;BME280;62922;-6.168;106.796;2023-02-15T04:32:15;100922.78;;;29.64;63.92
74474;BME280;62922;-6.168;106.796;2023-02-15T04:34:40;100912.38;;;29.64;64.13
74474;BME280;62922;-6.168;106.796;2023-02-15T04:37:06;100923.81;;;29.68;63.92
74474;BME280;62922;-6.168;106.796;2023-02-15T04:39:32;100933.91;;;29.69;63.82
74474;BME280;62922;-6.168;106.796;2023-02-15T04:41:58;100929.44;;;29.68;63.65
74474;BME280;62922;-6.168;106.796;2023-02-15T04:44:24;100919.31;;;29.67;63.58
74474;BME280;62922;-6.168;106.796;2023-02-15T04:46:50;100924.63;;;29.68;63.74
74474;BME280;62922;-6.168;106.796;2023-02-15T04:49:16;100929.97;;;29.70;63.58
74474;BME280;62922;-6.168;106.796;2023-02-15T04:51:41;100919.22;;;29.72;63.57
74474;BME280;62922;-6.168;106.796;2023-02-15T04:54:07;100905.16;;;29.72;63.60
74474;BME280;62922;-6.168;106.796;2023-02-15T04:56:33;100912.44;;;29.73;63.23
74474;BME280;62922;-6.168;106.796;2023-02-15T04:59:00;100902.53;;;29.76;63.57
74474;BME280;62922;-6.168;106.796;2023-02-15T05:01:26;100889.28;;;29.76;63.79
74474;BME280;62922;-6.168;106.796;2023-02-15T05:03:51;100888.16;;;29.77;63.52
74474;BME280;62922;-6.168;106.796;2023-02-15T05:06:17;100890.63;;;29.79;63.21
74474;BME280;62922;-6.168;106.796;2023-02-15T05:08:43;100887.47;;;29.80;63.38
74474;BME280;62922;-6.168;106.796;2023-02-15T05:11:09;100882.38;;;29.82;63.07
74474;BME280;62922;-6.168;106.796;2023-02-15T05:13:35;100886.84;;;29.83;62.93
74474;BME280;62922;-6.168;106.796;2023-02-15T05:16:01;100871.63;;;29.84;62.75
74474;BME280;62922;-6.168;106.796;2023-02-15T05:18:27;100874.94;;;29.86;62.67
74474;BME280;62922;-6.168;106.796;2023-02-15T05:20:53;100866.50;;;29.86;62.48
74474;BME280;62922;-6.168;106.796;2023-02-15T05:23:18;100865.34;;;29.87;62.49
74474;BME280;62922;-6.168;106.796;2023-02-15T05:25:46;100865.03;;;29.89;62.18
74474;BME280;62922;-6.168;106.796;2023-02-15T05:28:15;100869.50;;;29.90;62.25
74474;BME280;62922;-6.168;106.796;2023-02-15T05:30:43;100852.63;;;29.90;62.09
74474;BME280;62922;-6.168;106.796;2023-02-15T05:33:11;100845.00;;;29.90;62.00
74474;BME280;62922;-6.168;106.796;2023-02-15T05:35:37;100842.19;;;29.90;62.04
74474;BME280;62922;-6.168;106.796;2023-02-15T05:38:03;100843.00;;;29.91;61.92
74474;BME280;62922;-6.168;106.796;2023-02-15T05:40:29;100839.38;;;29.90;61.99
74474;BME280;62922;-6.168;106.796;2023-02-15T05:42:55;100826.97;;;29.91;61.90
74474;BME280;62922;-6.168;106.796;2023-02-15T05:45:22;100825.81;;;29.92;62.14
74474;BME280;62922;-6.168;106.796;2023-02-15T05:47:48;100831.97;;;29.94;61.87
74474;BME280;62922;-6.168;106.796;2023-02-15T05:50:14;100837.59;;;29.94;61.89
74474;BME280;62922;-6.168;106.796;2023-02-15T05:52:39;100827.97;;;29.95;62.11
74474;BME280;62922;-6.168;106.796;2023-02-15T05:55:08;100826.81;;;29.96;61.78
74474;BME280;62922;-6.168;106.796;2023-02-15T05:57:34;100827.31;;;29.98;61.93
74474;BME280;62922;-6.168;106.796;2023-02-15T06:00:00;100818.88;;;29.98;62.10
74474;BME280;62922;-6.168;106.796;2023-02-15T06:02:26;100812.94;;;30.00;62.13
74474;BME280;62922;-6.168;106.796;2023-02-15T06:04:52;100810.94;;;30.00;61.96
74474;BME280;62922;-6.168;106.796;2023-02-15T06:07:18;100793.72;;;30.02;61.95
74474;BME280;62922;-6.168;106.796;2023-02-15T06:09:44;100790.59;;;30.03;61.92
74474;BME280;62922;-6.168;106.796;2023-02-15T06:12:10;100794.41;;;30.07;61.94
74474;BME280;62922;-6.168;106.796;2023-02-15T06:14:35;100796.56;;;30.10;61.81
74474;BME280;62922;-6.168;106.796;2023-02-15T06:17:01;100792.09;;;30.09;61.93
74474;BME280;62922;-6.168;106.796;2023-02-15T06:19:27;100785.66;;;30.09;62.03
74474;BME280;62922;-6.168;106.796;2023-02-15T06:21:53;100781.16;;;30.08;62.13
74474;BME280;62922;-6.168;106.796;2023-02-15T06:24:19;100784.47;;;30.10;62.02
74474;BME280;62922;-6.168;106.796;2023-02-15T06:26:45;100774.06;;;30.10;61.92
74474;BME280;62922;-6.168;106.796;2023-02-15T06:29:10;100758.81;;;30.11;61.78
74474;BME280;62922;-6.168;106.796;2023-02-15T06:31:36;100750.88;;;30.13;61.70
74474;BME280;62922;-6.168;106.796;2023-02-15T06:34:02;100757.00;;;30.15;61.87
74474;BME280;62922;-6.168;106.796;2023-02-15T06:36:28;100750.22;;;30.16;61.95
74474;BME280;62922;-6.168;106.796;2023-02-15T06:38:56;100739.44;;;30.18;62.29
74474;BME280;62922;-6.168;106.796;2023-02-15T06:41:22;100739.16;;;30.20;62.19
74474;BME280;62922;-6.168;106.796;2023-02-15T06:43:49;100741.63;;;30.21;62.16
74474;BME280;62922;-6.168;106.796;2023-02-15T06:46:15;100730.03;;;30.23;62.31
74474;BME280;62922;-6.168;106.796;2023-02-15T06:48:41;100719.59;;;30.23;62.34
74474;BME280;62922;-6.168;106.796;2023-02-15T06:51:07;100713.66;;;30.25;62.46
74474;BME280;62922;-6.168;106.796;2023-02-15T06:53:35;100721.78;;;30.26;62.49
74474;BME280;62922;-6.168;106.796;2023-02-15T06:56:04;100708.22;;;30.28;62.48
74474;BME280;62922;-6.168;106.796;2023-02-15T06:58:34;100700.25;;;30.30;62.44
74474;BME280;62922;-6.168;106.796;2023-02-15T07:01:00;100695.13;;;30.32;62.44
74474;BME280;62922;-6.168;106.796;2023-02-15T07:03:26;100689.16;;;30.34;62.36
74474;BME280;62922;-6.168;106.796;2023-02-15T07:05:55;100691.66;;;30.35;62.28
74474;BME280;62922;-6.168;106.796;2023-02-15T07:08:22;100689.31;;;30.37;62.17
74474;BME280;62922;-6.168;106.796;2023-02-15T07:10:49;100686.50;;;30.37;62.14
74474;BME280;62922;-6.168;106.796;2023-02-15T07:13:18;100677.72;;;30.39;62.12
74474;BME280;62922;-6.168;106.796;2023-02-15T07:15:45;100678.56;;;30.39;62.02
74474;BME280;62922;-6.168;106.796;2023-02-15T07:18:11;100665.31;;;30.40;62.10
74474;BME280;62922;-6.168;106.796;2023-02-15T07:20:37;100660.50;;;30.40;61.66
74474;BME280;62922;-6.168;106.796;2023-02-15T07:23:04;100661.31;;;30.41;62.00
74474;BME280;62922;-6.168;106.796;2023-02-15T07:25:30;100648.09;;;30.41;62.04
74474;BME280;62922;-6.168;106.796;2023-02-15T07:27:56;100652.22;;;30.44;62.09
74474;BME280;62922;-6.168;106.796;2023-02-15T07:30:23;100647.41;;;30.44;61.76
74474;BME280;62922;-6.168;106.796;2023-02-15T07:32:49;100644.59;;;30.44;61.74
74474;BME280;62922;-6.168;106.796;2023-02-15T07:35:17;100649.53;;;30.47;61.78
74474;BME280;62922;-6.168;106.796;2023-02-15T07:37:43;100641.94;;;30.48;61.72
74474;BME280;62922;-6.168;106.796;2023-02-15T07:40:09;100636.81;;;30.50;61.63
74474;BME280;62922;-6.168;106.796;2023-02-15T07:42:35;100646.09;;;30.50;61.81
74474;BME280;62922;-6.168;106.796;2023-02-15T07:45:01;100628.84;;;30.52;61.47
74474;BME280;62922;-6.168;106.796;2023-02-15T07:47:29;100638.94;;;30.53;61.72
74474;BME280;62922;-6.168;106.796;2023-02-15T07:49:55;100639.44;;;30.55;61.57
74474;BME280;62922;-6.168;106.796;2023-02-15T07:52:21;100655.19;;;30.56;61.82
74474;BME280;62922;-6.168;106.796;2023-02-15T07:54:46;100646.72;;;30.56;61.47
74474;BME280;62922;-6.168;106.796;2023-02-15T07:57:12;100649.22;;;30.57;61.35
74474;BME280;62922;-6.168;106.796;2023-02-15T07:59:38;100649.22;;;30.57;61.60
74474;BME280;62922;-6.168;106.796;2023-02-15T08:02:05;100643.56;;;30.57;61.58
74474;BME280;62922;-6.168;106.796;2023-02-15T08:04:33;100654.50;;;30.59;61.39
74474;BME280;62922;-6.168;106.796;2023-02-15T08:06:59;100650.84;;;30.58;61.61
74474;BME280;62922;-6.168;106.796;2023-02-15T08:09:25;100647.72;;;30.60;61.86
74474;BME280;62922;-6.168;106.796;2023-02-15T08:11:53;100675.06;;;30.59;61.74
74474;BME280;62922;-6.168;106.796;2023-02-15T08:14:20;100675.41;;;30.58;61.83
74474;BME280;62922;-6.168;106.796;2023-02-15T08:19:17;100674.91;;;30.56;61.90
74474;BME280;62922;-6.168;106.796;2023-02-15T08:21:45;100674.41;;;30.54;62.19
74474;BME280;62922;-6.168;106.796;2023-02-15T08:24:12;100664.28;;;30.53;61.99
74474;BME280;62922;-6.168;106.796;2023-02-15T08:26:38;100669.44;;;30.51;62.14
74474;BME280;62922;-6.168;106.796;2023-02-15T08:29:05;100665.78;;;30.50;62.26
74474;BME280;62922;-6.168;106.796;2023-02-15T08:31:32;100658.84;;;30.48;62.48
74474;BME280;62922;-6.168;106.796;2023-02-15T08:33:58;100660.81;;;30.47;62.11
74474;BME280;62922;-6.168;106.796;2023-02-15T08:36:25;100656.00;;;30.48;62.21
74474;BME280;62922;-6.168;106.796;2023-02-15T08:38:51;100651.56;;;30.47;62.16
74474;BME280;62922;-6.168;106.796;2023-02-15T08:43:44;100665.63;;;30.47;61.98
74474;BME280;62922;-6.168;106.796;2023-02-15T08:46:11;100660.00;;;30.47;62.05
74474;BME280;62922;-6.168;106.796;2023-02-15T08:48:37;100658.00;;;30.47;62.02
74474;BME280;62922;-6.168;106.796;2023-02-15T08:51:07;100649.53;;;30.47;61.98
74474;BME280;62922;-6.168;106.796;2023-02-15T08:53:36;100651.91;;;30.45;62.08
74474;BME280;62922;-6.168;106.796;2023-02-15T08:56:01;100643.44;;;30.45;62.05
74474;BME280;62922;-6.168;106.796;2023-02-15T08:58:28;100647.91;;;30.46;62.38
74474;BME280;62922;-6.168;106.796;2023-02-15T09:00:54;100641.44;;;30.46;62.05
74474;BME280;62922;-6.168;106.796;2023-02-15T09:03:20;100653.88;;;30.45;61.82
74474;BME280;62922;-6.168;106.796;2023-02-15T09:05:45;100657.53;;;30.45;62.07
74474;BME280;62922;-6.168;106.796;2023-02-15T09:08:11;100659.16;;;30.46;62.14
74474;BME280;62922;-6.168;106.796;2023-02-15T09:10:37;100662.00;;;30.46;61.96
74474;BME280;62922;-6.168;106.796;2023-02-15T09:13:03;100661.16;;;30.46;62.04
74474;BME280;62922;-6.168;106.796;2023-02-15T09:15:29;100657.84;;;30.44;62.05
74474;BME280;62922;-6.168;106.796;2023-02-15T09:17:55;100666.78;;;30.46;61.85
74474;BME280;62922;-6.168;106.796;2023-02-15T09:20:24;100666.78;;;30.46;61.61
74474;BME280;62922;-6.168;106.796;2023-02-15T09:22:51;100677.25;;;30.45;62.03
74474;BME280;62922;-6.168;106.796;2023-02-15T09:25:18;100687.66;;;30.45;61.64
74474;BME280;62922;-6.168;106.796;2023-02-15T09:27:43;100685.34;;;30.47;61.65
74474;BME280;62922;-6.168;106.796;2023-02-15T09:30:09;100692.97;;;30.46;61.59
74474;BME280;62922;-6.168;106.796;2023-02-15T09:32:35;100690.97;;;30.47;61.79
74474;BME280;62922;-6.168;106.796;2023-02-15T09:35:01;100692.97;;;30.46;61.35
74474;BME280;62922;-6.168;106.796;2023-02-15T09:37:27;100700.56;;;30.46;61.52
74474;BME280;62922;-6.168;106.796;2023-02-15T09:39:53;100707.03;;;30.46;61.33
74474;BME280;62922;-6.168;106.796;2023-02-15T09:44:55;100703.38;;;30.46;61.33
74474;BME280;62922;-6.168;106.796;2023-02-15T09:52:22;100709.50;;;30.48;61.63
74474;BME280;62922;-6.168;106.796;2023-02-15T09:57:23;100706.38;;;30.49;61.37
74474;BME280;62922;-6.168;106.796;2023-02-15T09:59:58;100702.75;;;30.49;61.29
74474;BME280;62922;-6.168;106.796;2023-02-15T10:25:07;100747.13;;;30.52;60.81
74474;BME280;62922;-6.168;106.796;2023-02-15T10:27:40;100749.94;;;30.52;61.02
74474;BME280;62922;-6.168;106.796;2023-02-15T10:30:12;100748.75;;;30.53;61.08
74474;BME280;62922;-6.168;106.796;2023-02-15T10:42:51;100747.84;;;31.29;58.95
74474;BME280;62922;-6.168;106.796;2023-02-15T10:45:21;100741.34;;;31.29;58.31
74474;BME280;62922;-6.168;106.796;2023-02-15T10:57:48;100746.00;;;31.42;58.00
74474;BME280;62922;-6.168;106.796;2023-02-15T11:00:22;100748.81;;;31.42;58.00
74474;BME280;62922;-6.168;106.796;2023-02-15T11:07:46;100760.59;;;31.44;57.86
74474;BME280;62922;-6.168;106.796;2023-02-15T11:12:39;100763.75;;;31.42;57.88
74474;BME280;62922;-6.168;106.796;2023-02-15T11:15:39;100757.75;;;31.44;58.03
74474;BME280;62922;-6.168;106.796;2023-02-15T11:17:55;100762.22;;;31.45;57.79
74474;BME280;62922;-6.168;106.796;2023-02-15T11:22:51;100760.84;;;31.89;57.08
74474;BME280;62922;-6.168;106.796;2023-02-15T11:25:23;100762.72;;;32.14;56.25
74474;BME280;62922;-6.168;106.796;2023-02-15T11:27:49;100776.16;;;32.37;55.11
74474;BME280;62922;-6.168;106.796;2023-02-15T11:32:45;100802.09;;;30.41;61.34
74474;BME280;62922;-6.168;106.796;2023-02-15T11:37:41;100821.06;;;30.18;62.10
74474;BME280;62922;-6.168;106.796;2023-02-15T11:42:40;100851.06;;;30.14;62.16
74474;BME280;62922;-6.168;106.796;2023-02-15T11:45:15;100856.19;;;30.12;62.27
74474;BME280;62922;-6.168;106.796;2023-02-15T11:47:42;100861.81;;;30.12;62.19
74474;BME280;62922;-6.168;106.796;2023-02-15T11:52:36;100880.66;;;30.12;62.27
74474;BME280;62922;-6.168;106.796;2023-02-15T11:55:09;100872.56;;;30.10;62.46
74474;BME280;62922;-6.168;106.796;2023-02-15T11:57:38;100891.44;;;30.10;62.36
74474;BME280;62922;-6.168;106.796;2023-02-15T12:02:34;100887.78;;;30.09;62.51
74474;BME280;62922;-6.168;106.796;2023-02-15T12:05:05;100874.88;;;30.08;62.90
74474;BME280;62922;-6.168;106.796;2023-02-15T12:07:37;100890.06;;;30.07;62.60
74474;BME280;62922;-6.168;106.796;2023-02-15T12:12:39;100888.44;;;30.06;62.79
74474;BME280;62922;-6.168;106.796;2023-02-15T12:15:06;100905.66;;;30.05;62.72
74474;BME280;62922;-6.168;106.796;2023-02-15T12:17:33;100905.66;;;30.05;62.93
74474;BME280;62922;-6.168;106.796;2023-02-15T12:20:03;100912.41;;;30.04;62.80
74474;BME280;62922;-6.168;106.796;2023-02-15T12:22:32;100907.94;;;30.03;63.06
74474;BME280;62922;-6.168;106.796;2023-02-15T12:25:04;100915.56;;;30.02;62.89
74474;BME280;62922;-6.168;106.796;2023-02-15T12:27:43;100922.34;;;30.01;62.82
74474;BME280;62922;-6.168;106.796;2023-02-15T12:32:56;100921.50;;;30.01;62.88
74474;BME280;62922;-6.168;106.796;2023-02-15T12:37:52;100926.63;;;29.99;63.32
74474;BME280;62922;-6.168;106.796;2023-02-15T12:40:23;100930.63;;;29.98;63.01
74474;BME280;62922;-6.168;106.796;2023-02-15T12:42:51;100927.81;;;29.98;63.11
74474;BME280;62922;-6.168;106.796;2023-02-15T12:45:48;100926.13;;;29.97;63.12
74474;BME280;62922;-6.168;106.796;2023-02-15T12:50:31;100924.47;;;29.96;63.02
74474;BME280;62922;-6.168;106.796;2023-02-15T12:55:27;100919.19;;;29.94;63.32
74474;BME280;62922;-6.168;106.796;2023-02-15T13:00:26;100923.47;;;29.92;63.42
74474;BME280;62922;-6.168;106.796;2023-02-15T13:02:55;100926.59;;;29.90;63.64
74474;BME280;62922;-6.168;106.796;2023-02-15T13:07:54;100939.50;;;29.91;63.54
74474;BME280;62922;-6.168;106.796;2023-02-15T13:10:22;100937.84;;;29.90;64.06
74474;BME280;62922;-6.168;106.796;2023-02-15T13:12:49;100932.22;;;29.90;63.63
74474;BME280;62922;-6.168;106.796;2023-02-15T13:17:47;100932.84;;;29.87;64.03
74474;BME280;62922;-6.168;106.796;2023-02-15T13:20:16;100941.31;;;29.87;64.15
74474;BME280;62922;-6.168;106.796;2023-02-15T13:22:43;100942.47;;;29.86;63.96
74474;BME280;62922;-6.168;106.796;2023-02-15T13:25:17;100946.41;;;29.85;64.13
74474;BME280;62922;-6.168;106.796;2023-02-15T13:27:45;100959.69;;;29.85;63.99
74474;BME280;62922;-6.168;106.796;2023-02-15T13:30:25;100968.91;;;29.85;64.21
74474;BME280;62922;-6.168;106.796;2023-02-15T13:32:54;100972.06;;;29.84;64.26
74474;BME280;62922;-6.168;106.796;2023-02-15T13:35:21;100998.22;;;29.84;64.34
74474;BME280;62922;-6.168;106.796;2023-02-15T13:40:18;100974.06;;;29.83;64.50
74474;BME280;62922;-6.168;106.796;2023-02-15T13:50:16;100996.69;;;29.78;64.57
74474;BME280;62922;-6.168;106.796;2023-02-15T13:52:51;101003.16;;;29.79;64.60
74474;BME280;62922;-6.168;106.796;2023-02-15T13:58:04;101020.88;;;29.79;64.66
74474;BME280;62922;-6.168;106.796;2023-02-15T14:05:30;101033.25;;;29.78;64.79
74474;BME280;62922;-6.168;106.796;2023-02-15T14:10:37;101042.00;;;29.77;64.75
74474;BME280;62922;-6.168;106.796;2023-02-15T14:18:12;101066.00;;;29.74;64.89
74474;BME280;62922;-6.168;106.796;2023-02-15T14:25:35;101062.69;;;29.72;64.76
74474;BME280;62922;-6.168;106.796;2023-02-15T14:28:05;101061.00;;;29.71;65.18
74474;BME280;62922;-6.168;106.796;2023-02-15T14:30:36;101064.66;;;29.72;64.64
74474;BME280;62922;-6.168;106.796;2023-02-15T14:35:38;101069.44;;;29.71;64.85
74474;BME280;62922;-6.168;106.796;2023-02-15T14:43:15;101061.63;;;29.68;64.99
74474;BME280;62922;-6.168;106.796;2023-02-15T14:45:49;101072.56;;;29.69;65.10
74474;BME280;62922;-6.168;106.796;2023-02-15T14:48:23;101070.91;;;29.68;65.26
74474;BME280;62922;-6.168;106.796;2023-02-15T14:50:50;101072.88;;;29.68;64.96
74474;BME280;62922;-6.168;106.796;2023-02-15T14:58:33;101085.91;;;29.64;64.73
74474;BME280;62922;-6.168;106.796;2023-02-15T15:01:08;101082.25;;;29.63;65.02
74474;BME280;62922;-6.168;106.796;2023-02-15T15:03:35;101073.28;;;29.61;64.93
74474;BME280;62922;-6.168;106.796;2023-02-15T15:06:04;101086.53;;;29.61;65.04
74474;BME280;62922;-6.168;106.796;2023-02-15T15:08:38;101080.91;;;29.61;65.02
74474;BME280;62922;-6.168;106.796;2023-02-15T15:13:53;101083.22;;;29.59;65.11
74474;BME280;62922;-6.168;106.796;2023-02-15T15:18:48;101092.78;;;29.58;65.27
74474;BME280;62922;-6.168;106.796;2023-02-15T15:24:00;101082.69;;;29.57;65.01
74474;BME280;62922;-6.168;106.796;2023-02-15T15:33:52;101073.22;;;29.53;65.11
74474;BME280;62922;-6.168;106.796;2023-02-15T15:49:26;101082.63;;;29.48;65.07
74474;BME280;62922;-6.168;106.796;2023-02-15T15:51:59;101065.25;;;29.46;64.72
74474;BME280;62922;-6.168;106.796;2023-02-15T15:54:26;101071.69;;;29.47;64.84
74474;BME280;62922;-6.168;106.796;2023-02-15T15:56:56;101076.16;;;29.48;64.72
74474;BME280;62922;-6.168;106.796;2023-02-15T15:59:26;101074.81;;;29.45;64.82